createdAt,value
2023-05-04T00:01:11.646Z,86.72
2023-05-04T00:03:39.870Z,89.23
2023-05-04T00:06:10.465Z,88.52
2023-05-04T00:08:38.438Z,88.28
2023-05-04T00:11:06.252Z,88.48
2023-05-04T00:13:34.145Z,88.04
2023-05-04T00:16:02.559Z,87.23
2023-05-04T00:18:30.594Z,87.30
2023-05-04T00:20:58.428Z,86.87
2023-05-04T00:23:26.614Z,87.04
2023-05-04T00:25:54.630Z,86.11
2023-05-04T00:28:22.620Z,86.79
2023-05-04T00:30:52.918Z,86.92
2023-05-04T00:33:22.524Z,87.74
2023-05-04T00:35:50.357Z,88.97
2023-05-04T00:38:19.389Z,89.81
2023-05-04T00:40:47.291Z,89.76
2023-05-04T00:43:15.207Z,89.38
2023-05-04T00:45:43.082Z,89.08
2023-05-04T00:48:11.323Z,88.98
2023-05-04T00:50:40.422Z,87.69
2023-05-04T00:53:10.886Z,88.45
2023-05-04T00:55:40.952Z,87.82
2023-05-04T00:58:11.739Z,87.77
2023-05-04T01:00:39.804Z,86.91
2023-05-04T01:03:10.421Z,87.25
2023-05-04T01:05:47.089Z,87.82
2023-05-04T01:08:18.709Z,86.16
2023-05-04T01:10:58.414Z,87.08
2023-05-04T01:13:28.364Z,87.87
2023-05-04T01:15:56.453Z,87.81
2023-05-04T01:18:24.472Z,88.74
2023-05-04T01:20:52.460Z,88.02
2023-05-04T01:23:21.129Z,87.56
2023-05-04T01:25:59.884Z,87.62
2023-05-04T01:29:11.343Z,87.80
2023-05-04T01:31:40.581Z,87.88
2023-05-04T01:34:09.260Z,87.78
2023-05-04T01:36:37.421Z,86.94
2023-05-04T01:39:05.557Z,87.63
2023-05-04T01:41:34.677Z,87.11
2023-05-04T01:44:04.049Z,87.19
2023-05-04T01:46:31.998Z,87.07
2023-05-04T01:49:01.044Z,87.29
2023-05-04T01:51:28.951Z,88.52
2023-05-04T01:53:58.146Z,88.62
2023-05-04T01:56:26.358Z,89.06
2023-05-04T01:58:54.372Z,88.85
2023-05-04T02:01:22.309Z,89.76
2023-05-04T02:03:50.412Z,90.13
2023-05-04T02:06:18.583Z,89.87
2023-05-04T02:08:46.950Z,91.50
2023-05-04T02:12:09.463Z,93.15
2023-05-04T02:14:37.911Z,94.66
2023-05-04T02:17:06.751Z,94.90
2023-05-04T02:19:34.677Z,93.48
2023-05-04T02:22:02.760Z,94.45
2023-05-04T02:24:30.714Z,95.17
2023-05-04T02:26:58.899Z,94.43
2023-05-04T02:29:34.429Z,94.89
2023-05-04T02:32:02.586Z,95.27
2023-05-04T02:34:30.716Z,96.15
2023-05-04T02:36:58.999Z,95.83
2023-05-04T02:39:26.877Z,95.38
2023-05-04T02:41:55.698Z,94.09
2023-05-04T02:44:23.695Z,93.42
2023-05-04T02:46:51.650Z,92.41
2023-05-04T02:49:19.630Z,91.48
2023-05-04T02:54:55.605Z,90.52
2023-05-04T02:57:23.696Z,91.35
2023-05-04T02:59:51.603Z,91.55
2023-05-04T03:02:19.594Z,91.80
2023-05-04T03:04:47.705Z,90.94
2023-05-04T03:07:15.840Z,90.79
2023-05-04T03:09:45.971Z,90.84
2023-05-04T03:12:15.950Z,90.79
2023-05-04T03:14:43.948Z,90.67
2023-05-04T03:17:12.404Z,90.49
2023-05-04T03:19:40.732Z,90.08
2023-05-04T03:22:10.334Z,90.36
2023-05-04T03:24:38.245Z,89.55
2023-05-04T03:27:06.316Z,89.91
2023-05-04T03:29:37.515Z,89.76
2023-05-04T03:32:07.102Z,90.42
2023-05-04T03:34:35.967Z,90.21
2023-05-04T03:37:06.367Z,90.51
2023-05-04T03:39:34.457Z,90.26
2023-05-04T03:42:02.848Z,90.20
2023-05-04T03:44:30.896Z,90.57
2023-05-04T03:46:58.847Z,89.54
2023-05-04T03:49:27.268Z,90.15
2023-05-04T03:51:55.449Z,90.32
2023-05-04T03:54:23.850Z,89.20
2023-05-04T03:56:54.225Z,89.43
2023-05-04T04:04:19.930Z,90.52
2023-05-04T04:06:48.078Z,89.91
2023-05-04T04:09:19.054Z,90.21
2023-05-04T04:11:47.535Z,89.85
2023-05-04T04:14:15.468Z,89.67
2023-05-04T04:16:43.592Z,89.75
2023-05-04T04:19:12.100Z,89.56
2023-05-04T04:21:40.147Z,89.72
2023-05-04T04:24:08.340Z,89.88
2023-05-04T04:26:36.378Z,89.60
2023-05-04T04:29:04.581Z,89.37
2023-05-04T04:31:32.763Z,90.69
2023-05-04T04:34:01.051Z,90.50
2023-05-04T04:36:28.934Z,89.58
2023-05-04T04:38:56.996Z,90.73
2023-05-04T04:41:25.333Z,90.87
2023-05-04T04:43:53.313Z,90.69
2023-05-04T04:46:21.193Z,90.50
2023-05-04T04:48:49.404Z,90.86
2023-05-04T04:51:17.559Z,90.99
2023-05-04T04:53:45.709Z,91.76
2023-05-04T04:56:14.071Z,91.71
2023-05-04T04:58:42.825Z,91.83
2023-05-04T05:01:10.841Z,92.60
2023-05-04T05:03:38.858Z,91.25
2023-05-04T05:06:06.824Z,92.87
2023-05-04T05:08:35.161Z,92.30
2023-05-04T05:11:04.245Z,93.08
2023-05-04T05:13:32.416Z,92.70
2023-05-04T05:16:00.519Z,93.11
2023-05-04T05:18:29.538Z,93.09
2023-05-04T05:20:58.019Z,92.61
2023-05-04T05:23:26.002Z,91.46
2023-05-04T05:25:53.995Z,91.49
2023-05-04T05:28:22.193Z,92.21
2023-05-04T05:30:52.355Z,91.43
2023-05-04T05:33:20.557Z,91.43
2023-05-04T05:35:48.394Z,91.30
2023-05-04T05:38:17.853Z,92.20
2023-05-04T05:40:45.846Z,89.93
2023-05-04T05:43:13.824Z,90.35
2023-05-04T05:45:41.888Z,89.98
2023-05-04T05:48:09.792Z,91.19
2023-05-04T05:50:38.157Z,90.63
2023-05-04T05:53:06.101Z,90.53
2023-05-04T05:55:34.184Z,90.88
2023-05-04T05:58:02.064Z,91.76
2023-05-04T06:00:30.079Z,89.62
2023-05-04T06:02:58.009Z,90.50
2023-05-04T06:05:26.104Z,90.26
2023-05-04T06:07:54.283Z,91.75
2023-05-04T06:10:22.548Z,90.70
2023-05-04T06:12:50.588Z,93.00
2023-05-04T06:15:18.880Z,92.67
2023-05-04T06:17:49.034Z,93.82
2023-05-04T06:20:17.181Z,92.73
2023-05-04T06:22:45.080Z,93.69
2023-05-04T06:25:13.524Z,93.06
2023-05-04T06:27:41.462Z,92.20
2023-05-04T06:30:10.254Z,92.01
2023-05-04T06:32:38.698Z,90.77
2023-05-04T06:35:09.292Z,89.47
2023-05-04T06:37:37.685Z,90.92
2023-05-04T06:40:07.476Z,90.01
2023-05-04T06:42:35.766Z,89.50
2023-05-04T06:45:03.887Z,88.09
2023-05-04T06:47:36.452Z,88.31
2023-05-04T06:50:12.077Z,88.18
2023-05-04T06:52:45.061Z,87.45
2023-05-04T06:55:14.035Z,88.36
2023-05-04T06:57:42.030Z,86.81
2023-05-04T07:00:10.903Z,87.20
2023-05-04T07:02:38.994Z,87.38
2023-05-04T07:05:07.312Z,87.92
2023-05-04T07:07:35.448Z,87.83
2023-05-04T07:10:03.817Z,88.75
2023-05-04T07:12:32.189Z,88.90
2023-05-04T07:15:00.161Z,87.47
2023-05-04T07:17:28.526Z,86.92
2023-05-04T07:19:56.468Z,87.15
2023-05-04T07:22:24.590Z,88.83
2023-05-04T07:24:52.736Z,89.80
2023-05-04T07:27:20.692Z,88.13
2023-05-04T07:29:48.606Z,88.79
2023-05-04T07:32:17.205Z,90.07
2023-05-04T07:34:46.691Z,91.43
2023-05-04T07:37:16.206Z,88.80
2023-05-04T07:39:44.344Z,87.49
2023-05-04T07:42:12.742Z,87.35
2023-05-04T07:44:41.596Z,88.25
2023-05-04T07:47:09.546Z,88.41
2023-05-04T07:49:37.828Z,87.22
2023-05-04T07:52:06.087Z,88.22
2023-05-04T07:54:34.014Z,89.81
2023-05-04T07:57:05.069Z,89.12
2023-05-04T07:59:33.635Z,88.93
2023-05-04T08:02:01.794Z,87.77
2023-05-04T08:04:29.852Z,88.91
2023-05-04T08:06:57.762Z,87.43
2023-05-04T08:09:25.760Z,91.42
2023-05-04T08:11:53.914Z,89.49
2023-05-04T08:14:24.783Z,88.92
2023-05-04T08:16:52.767Z,85.66
2023-05-04T08:19:20.715Z,85.41
2023-05-04T08:21:48.685Z,84.29
2023-05-04T08:24:18.771Z,82.69
2023-05-04T08:26:55.564Z,83.47
2023-05-04T08:29:29.217Z,81.61
2023-05-04T08:31:58.162Z,81.18
2023-05-04T08:34:27.515Z,80.44
2023-05-04T08:36:55.668Z,78.05
2023-05-04T08:39:26.211Z,80.97
2023-05-04T08:41:54.625Z,82.45
2023-05-04T08:44:23.533Z,85.53
2023-05-04T08:46:53.860Z,83.04
2023-05-04T08:49:23.543Z,83.01
2023-05-04T08:51:52.223Z,79.03
2023-05-04T08:54:21.727Z,78.59
2023-05-04T08:56:52.888Z,79.54
2023-05-04T08:59:23.325Z,81.10
2023-05-04T09:01:58.978Z,81.10
2023-05-04T09:04:29.248Z,82.10
2023-05-04T09:06:58.894Z,82.30
2023-05-04T09:09:28.992Z,80.60
2023-05-04T09:11:57.117Z,80.18
2023-05-04T09:14:33.284Z,82.91
2023-05-04T09:17:02.606Z,82.66
2023-05-04T09:19:34.921Z,81.87
2023-05-04T09:22:14.471Z,81.72
2023-05-04T09:24:42.376Z,82.80
2023-05-04T09:27:11.953Z,82.97
2023-05-04T09:29:42.640Z,82.39
2023-05-04T09:32:15.470Z,81.69
2023-05-04T09:34:54.268Z,80.52
2023-05-04T09:37:23.132Z,79.16
2023-05-04T09:39:59.012Z,79.71
2023-05-04T09:42:27.262Z,77.49
2023-05-04T09:45:06.577Z,78.03
2023-05-04T09:47:37.519Z,81.49
2023-05-04T09:50:12.217Z,80.09
2023-05-04T09:52:42.325Z,80.82
2023-05-04T09:55:18.194Z,79.85
2023-05-04T09:57:48.248Z,79.49
2023-05-04T10:00:18.223Z,78.72
2023-05-04T10:02:48.386Z,78.11
2023-05-04T10:05:18.853Z,77.54
2023-05-04T10:07:47.426Z,78.45
2023-05-04T10:10:15.967Z,78.53
2023-05-04T10:12:47.131Z,77.94
2023-05-04T10:15:17.542Z,78.52
2023-05-04T10:17:58.081Z,78.10
2023-05-04T10:20:28.635Z,78.13
2023-05-04T10:23:08.835Z,77.90
2023-05-04T10:26:05.033Z,76.13
2023-05-04T10:28:43.198Z,77.26
2023-05-04T10:31:11.640Z,75.39
2023-05-04T10:33:41.036Z,75.89
2023-05-04T10:36:10.030Z,75.74
2023-05-04T10:38:40.613Z,76.36
2023-05-04T10:41:19.112Z,75.14
2023-05-04T10:43:51.111Z,75.13
2023-05-04T10:46:23.033Z,75.19
2023-05-04T10:48:51.788Z,75.23
2023-05-04T10:51:30.156Z,74.01
2023-05-04T10:54:05.426Z,73.75
2023-05-04T10:56:33.544Z,71.17
2023-05-04T10:59:09.266Z,71.53
2023-05-04T11:01:46.744Z,69.52
2023-05-04T11:04:24.620Z,67.24
2023-05-04T11:07:08.861Z,66.47
2023-05-04T11:09:42.422Z,68.51
2023-05-04T11:12:13.465Z,67.64
2023-05-04T11:14:43.442Z,69.21
2023-05-04T11:17:27.612Z,68.03
2023-05-04T11:19:56.932Z,68.77
2023-05-04T11:22:24.826Z,68.79
2023-05-04T11:25:01.668Z,69.32
2023-05-04T11:27:30.550Z,69.25
2023-05-04T11:30:04.940Z,69.82
2023-05-04T11:32:38.571Z,69.18
2023-05-04T11:35:25.140Z,68.36
2023-05-04T11:37:53.973Z,67.99
2023-05-04T11:40:23.959Z,69.03
2023-05-04T11:42:57.230Z,67.93
2023-05-04T11:45:29.175Z,69.52
2023-05-04T11:47:58.752Z,68.17
2023-05-04T11:50:28.931Z,68.00
2023-05-04T11:53:12.254Z,68.38
2023-05-04T11:55:42.100Z,68.61
2023-05-04T11:58:11.876Z,67.63
2023-05-04T12:00:42.286Z,68.41
2023-05-04T12:03:19.104Z,70.13
2023-05-04T12:05:52.498Z,71.59
2023-05-04T12:08:35.225Z,68.74
2023-05-04T12:11:13.740Z,67.88
2023-05-04T12:13:42.971Z,68.13
2023-05-04T12:16:18.559Z,68.04
2023-05-04T12:18:47.732Z,67.43
2023-05-04T12:21:18.920Z,67.83
2023-05-04T12:23:48.035Z,69.44
2023-05-04T12:26:18.993Z,70.00
2023-05-04T12:28:47.769Z,70.34
2023-05-04T12:31:16.235Z,70.94
2023-05-04T12:33:44.302Z,71.41
2023-05-04T12:36:12.440Z,71.14
2023-05-04T12:38:40.286Z,70.62
2023-05-04T12:41:10.980Z,70.03
2023-05-04T12:43:39.243Z,70.34
2023-05-04T12:46:07.789Z,68.95
2023-05-04T12:48:35.829Z,68.66
2023-05-04T12:51:05.255Z,68.77
2023-05-04T12:53:33.579Z,68.47
2023-05-04T12:56:02.631Z,67.76
2023-05-04T12:58:31.417Z,68.54
2023-05-04T13:01:00.004Z,68.03
2023-05-04T13:03:28.242Z,68.14
2023-05-04T13:05:57.801Z,69.59
2023-05-04T13:08:25.973Z,70.61
2023-05-04T13:10:53.981Z,70.17
2023-05-04T13:13:26.401Z,69.26
2023-05-04T13:15:54.805Z,69.37
2023-05-04T13:18:27.538Z,69.58
2023-05-04T13:20:57.058Z,70.44
2023-05-04T13:23:25.354Z,69.87
2023-05-04T13:25:53.798Z,69.04
2023-05-04T13:28:21.734Z,69.18
2023-05-04T13:30:49.835Z,70.19
2023-05-04T13:33:28.977Z,70.66
2023-05-04T13:35:58.821Z,68.97
2023-05-04T13:38:27.321Z,68.71
2023-05-04T13:40:56.291Z,70.31
2023-05-04T13:43:25.578Z,70.04
2023-05-04T13:45:53.904Z,69.65
2023-05-04T13:48:21.729Z,70.58
2023-05-04T13:50:49.798Z,71.33
2023-05-04T13:53:17.787Z,71.06
2023-05-04T13:55:46.350Z,71.83
2023-05-04T13:58:14.359Z,71.92
2023-05-04T14:00:43.529Z,71.24
2023-05-04T14:03:11.827Z,70.94
2023-05-04T14:05:40.192Z,71.25
2023-05-04T14:08:08.269Z,70.29
2023-05-04T14:10:37.658Z,69.73
2023-05-04T14:13:05.838Z,70.91
2023-05-04T14:15:33.980Z,70.57
2023-05-04T14:18:02.514Z,70.59
2023-05-04T14:20:30.634Z,70.80
2023-05-04T14:22:58.630Z,70.86
2023-05-04T14:25:27.013Z,70.74
2023-05-04T14:27:55.032Z,70.61
2023-05-04T14:30:23.145Z,70.88
2023-05-04T14:32:55.402Z,71.03
2023-05-04T14:35:23.590Z,71.36
2023-05-04T14:37:51.881Z,72.52
2023-05-04T14:40:19.926Z,72.14
2023-05-04T14:42:48.232Z,73.79
2023-05-04T14:45:17.415Z,73.71
2023-05-04T14:47:45.715Z,74.97
2023-05-04T14:50:14.045Z,75.46
2023-05-04T14:52:42.318Z,75.28
2023-05-04T14:55:10.527Z,75.35
2023-05-04T14:57:38.614Z,76.42
2023-05-04T15:00:09.106Z,76.09
2023-05-04T15:02:41.808Z,76.03
2023-05-04T15:05:12.769Z,75.50
2023-05-04T15:07:41.215Z,75.35
2023-05-04T15:10:10.626Z,75.42
2023-05-04T15:12:40.502Z,75.55
2023-05-04T15:15:09.460Z,75.60
2023-05-04T15:17:37.994Z,76.28
2023-05-04T15:20:07.945Z,75.78
2023-05-04T15:22:36.717Z,76.30
2023-05-04T15:25:05.896Z,76.68
2023-05-04T15:27:34.448Z,76.28
2023-05-04T15:30:03.090Z,76.19
2023-05-04T15:32:33.089Z,76.49
2023-05-04T15:35:05.955Z,77.00
2023-05-04T15:37:35.270Z,77.43
2023-05-04T15:40:05.006Z,77.74
2023-05-04T15:42:33.809Z,77.61
2023-05-04T15:45:02.356Z,76.90
2023-05-04T15:47:32.385Z,76.23
2023-05-04T15:50:00.974Z,76.41
2023-05-04T15:52:29.399Z,76.67
2023-05-04T15:55:04.235Z,77.26
2023-05-04T15:57:38.073Z,76.91
2023-05-04T16:00:07.879Z,77.16
2023-05-04T16:02:36.508Z,77.16
2023-05-04T16:05:05.188Z,77.02
2023-05-04T16:07:34.554Z,76.59
2023-05-04T16:10:03.220Z,77.09
2023-05-04T16:12:31.675Z,76.95
2023-05-04T16:15:00.143Z,77.07
2023-05-04T16:17:29.414Z,77.43
2023-05-04T16:19:57.942Z,77.37
2023-05-04T16:22:26.301Z,76.98
2023-05-04T16:24:54.913Z,77.14
2023-05-04T16:27:29.220Z,76.77
2023-05-04T16:29:57.957Z,77.47
2023-05-04T16:32:26.311Z,77.79
2023-05-04T16:34:54.981Z,77.07
2023-05-04T16:37:23.344Z,76.93
2023-05-04T16:39:51.843Z,76.67
2023-05-04T16:42:21.627Z,77.37
2023-05-04T16:44:50.461Z,77.04
2023-05-04T16:47:18.970Z,76.97
2023-05-04T16:49:47.299Z,76.92
2023-05-04T16:52:15.932Z,76.99
2023-05-04T16:54:44.297Z,76.61
2023-05-04T16:57:12.781Z,76.52
2023-05-04T16:59:41.504Z,76.56
2023-05-04T17:02:09.931Z,75.95
2023-05-04T17:04:38.369Z,75.90
2023-05-04T17:07:08.770Z,76.17
2023-05-04T17:09:39.193Z,76.91
2023-05-04T17:12:07.582Z,77.01
2023-05-04T17:14:36.059Z,77.22
2023-05-04T17:17:04.710Z,77.98
2023-05-04T17:19:33.374Z,78.28
2023-05-04T17:22:01.722Z,78.22
2023-05-04T17:24:30.310Z,78.27
2023-05-04T17:26:58.996Z,78.67
2023-05-04T17:29:27.430Z,78.51
2023-05-04T17:31:56.144Z,78.42
2023-05-04T17:34:24.501Z,78.55
2023-05-04T17:36:54.215Z,78.57
2023-05-04T17:39:22.535Z,79.13
2023-05-04T17:41:51.407Z,79.36
2023-05-04T17:44:20.317Z,79.78
2023-05-04T17:46:48.844Z,80.23
2023-05-04T17:49:19.634Z,80.41
2023-05-04T17:51:49.647Z,80.47
2023-05-04T17:54:18.091Z,80.59
2023-05-04T17:56:46.708Z,81.28
2023-05-04T17:59:17.108Z,81.42
2023-05-04T18:01:46.305Z,81.29
2023-05-04T18:04:14.612Z,81.05
2023-05-04T18:06:43.359Z,81.04
2023-05-04T18:09:12.186Z,80.67
2023-05-04T18:11:40.416Z,81.16
2023-05-04T18:14:08.922Z,81.70
2023-05-04T18:16:39.603Z,81.42
2023-05-04T18:19:08.493Z,81.73
2023-05-04T18:21:39.550Z,81.37
2023-05-04T18:24:08.091Z,81.39
2023-05-04T18:26:36.700Z,81.68
2023-05-04T18:29:17.971Z,81.23
2023-05-04T18:31:48.828Z,81.45
2023-05-04T18:34:17.589Z,81.56
2023-05-04T18:36:48.032Z,81.80
2023-05-04T18:39:17.882Z,81.79
2023-05-04T18:41:46.562Z,81.53
2023-05-04T18:44:18.444Z,81.09
2023-05-04T18:46:47.183Z,82.14
2023-05-04T18:49:16.054Z,82.08
2023-05-04T18:51:44.600Z,82.11
2023-05-04T18:54:16.170Z,82.88
2023-05-04T18:56:44.991Z,81.80
2023-05-04T18:59:13.299Z,81.56
2023-05-04T19:01:41.889Z,80.97
2023-05-04T19:04:10.452Z,81.01
2023-05-04T19:06:38.568Z,80.89
2023-05-04T19:09:08.207Z,80.99
2023-05-04T19:11:36.535Z,81.16
2023-05-04T19:14:04.616Z,81.29
2023-05-04T19:16:33.003Z,81.03
2023-05-04T19:19:01.088Z,81.18
2023-05-04T19:21:29.778Z,81.43
2023-05-04T19:23:57.878Z,81.26
2023-05-04T19:26:26.081Z,81.61
2023-05-04T19:28:54.103Z,81.49
2023-05-04T19:31:23.013Z,81.66
2023-05-04T19:33:52.448Z,82.08
2023-05-04T19:36:20.546Z,81.98
2023-05-04T19:38:48.979Z,81.41
2023-05-04T19:41:17.599Z,81.30
2023-05-04T19:43:46.170Z,81.25
2023-05-04T19:46:14.652Z,80.91
2023-05-04T19:48:43.971Z,80.53
2023-05-04T19:51:12.678Z,80.88
2023-05-04T19:53:41.068Z,81.19
2023-05-04T19:56:09.303Z,81.10
2023-05-04T19:58:37.942Z,80.36
2023-05-04T20:01:06.045Z,80.40
2023-05-04T20:03:34.025Z,80.43
2023-05-04T20:06:03.845Z,80.08
2023-05-04T20:08:31.897Z,79.78
2023-05-04T20:11:00.216Z,79.66
2023-05-04T20:13:28.454Z,79.88
2023-05-04T20:15:57.059Z,80.68
2023-05-04T20:18:25.455Z,80.03
2023-05-04T20:20:53.636Z,79.34
2023-05-04T20:23:22.527Z,79.28
2023-05-04T20:25:51.379Z,79.81
2023-05-04T20:28:19.380Z,79.50
2023-05-04T20:30:47.455Z,78.87
2023-05-04T20:33:15.351Z,79.85
2023-05-04T20:35:44.469Z,79.86
2023-05-04T20:38:12.785Z,80.16
2023-05-04T20:40:40.823Z,80.24
2023-05-04T20:43:08.737Z,80.44
2023-05-04T20:45:36.715Z,80.63
2023-05-04T20:48:05.004Z,80.69
2023-05-04T20:50:33.243Z,80.32
2023-05-04T20:53:03.957Z,80.89
2023-05-04T20:55:32.154Z,80.07
2023-05-04T20:58:00.250Z,80.55
2023-05-04T21:00:32.989Z,80.97
2023-05-04T21:03:01.877Z,80.97
2023-05-04T21:05:29.841Z,81.12
2023-05-04T21:07:57.828Z,80.73
2023-05-04T21:10:25.773Z,80.87
2023-05-04T21:12:57.734Z,80.72
2023-05-04T21:15:26.818Z,80.45
2023-05-04T21:17:54.834Z,80.17
2023-05-04T21:20:22.925Z,80.74
2023-05-04T21:22:51.007Z,80.30
2023-05-04T21:25:19.049Z,80.22
2023-05-04T21:27:47.084Z,80.14
2023-05-04T21:30:15.657Z,79.73
2023-05-04T21:32:43.924Z,79.87
2023-05-04T21:35:12.051Z,79.63
2023-05-04T21:37:40.272Z,79.95
2023-05-04T21:40:09.378Z,80.22
2023-05-04T21:42:37.501Z,80.70
2023-05-04T21:45:06.518Z,80.34
2023-05-04T21:47:34.443Z,80.37
2023-05-04T21:50:02.373Z,80.47
2023-05-04T21:52:30.433Z,80.78
2023-05-04T21:54:58.360Z,80.65
2023-05-04T21:57:26.599Z,81.22
2023-05-04T21:59:54.519Z,80.66
2023-05-04T22:02:22.379Z,80.95
2023-05-04T22:04:50.320Z,81.50
2023-05-04T22:07:18.355Z,81.49
2023-05-04T22:09:46.164Z,81.30
2023-05-04T22:12:14.062Z,81.61
2023-05-04T22:14:44.057Z,81.86
2023-05-04T22:17:11.951Z,81.44
2023-05-04T22:19:39.878Z,81.23
2023-05-04T22:22:07.681Z,81.43
2023-05-04T22:24:35.984Z,81.26
2023-05-04T22:27:03.991Z,81.32
2023-05-04T22:29:35.128Z,81.48
2023-05-04T22:32:02.980Z,81.13
2023-05-04T22:34:30.920Z,81.02
2023-05-04T22:36:58.736Z,81.33
2023-05-04T22:39:26.685Z,81.66
2023-05-04T22:41:54.614Z,80.75
2023-05-04T22:44:22.417Z,81.34
2023-05-04T22:46:50.250Z,81.43
2023-05-04T22:49:18.398Z,81.57
2023-05-04T22:51:46.329Z,81.42
2023-05-04T22:54:14.231Z,80.74
2023-05-04T22:56:42.107Z,81.73
2023-05-04T22:59:10.025Z,82.10
2023-05-04T23:01:42.738Z,81.64
2023-05-04T23:04:11.652Z,81.43
2023-05-04T23:06:39.288Z,82.16
2023-05-04T23:09:07.144Z,82.60
2023-05-04T23:11:35.044Z,82.51
2023-05-04T23:14:02.990Z,83.07
2023-05-04T23:16:31.239Z,82.47
2023-05-04T23:18:59.524Z,82.72
2023-05-04T23:21:27.542Z,82.71
2023-05-04T23:23:55.510Z,82.78
2023-05-04T23:26:23.963Z,82.63
2023-05-04T23:28:51.996Z,82.29
2023-05-04T23:31:20.136Z,82.72
2023-05-04T23:33:48.079Z,82.83
2023-05-04T23:36:15.896Z,83.10
2023-05-04T23:38:43.791Z,83.12
2023-05-04T23:41:12.740Z,83.31
2023-05-04T23:43:40.762Z,83.29
2023-05-04T23:46:08.815Z,82.94
2023-05-04T23:48:36.606Z,82.94
2023-05-04T23:51:04.937Z,83.31
2023-05-04T23:53:34.052Z,83.28
2023-05-04T23:56:04.269Z,83.07
2023-05-04T23:58:33.805Z,82.54
